createdAt,value
2022-11-15T00:00:12.097Z,101399.00
2022-11-15T00:03:01.382Z,101393.00
2022-11-15T00:05:49.446Z,101393.00
2022-11-15T00:08:36.792Z,101396.00
2022-11-15T00:11:23.641Z,101388.00
2022-11-15T00:14:10.799Z,101384.00
2022-11-15T00:16:58.447Z,101374.00
2022-11-15T00:19:46.781Z,101366.00
2022-11-15T00:22:35.291Z,101352.00
2022-11-15T00:25:22.476Z,101340.00
2022-11-15T00:28:09.937Z,101333.00
2022-11-15T00:31:02.428Z,101330.00
2022-11-15T00:33:49.655Z,101334.00
2022-11-15T00:36:38.205Z,101325.00
2022-11-15T00:39:25.466Z,101317.00
2022-11-15T00:42:12.808Z,101312.00
2022-11-15T00:45:00.371Z,101304.00
2022-11-15T00:47:47.560Z,101298.00
2022-11-15T00:50:35.179Z,101291.00
2022-11-15T00:53:23.739Z,101283.00
2022-11-15T00:56:11.369Z,101272.00
2022-11-15T00:58:58.761Z,101263.00
2022-11-15T01:01:46.037Z,101266.00
2022-11-15T01:04:33.546Z,101256.00
2022-11-15T01:07:20.798Z,101251.00
2022-11-15T01:10:11.105Z,101237.00
2022-11-15T01:12:58.524Z,101238.00
2022-11-15T01:15:47.301Z,101240.00
2022-11-15T01:18:34.367Z,101227.00
2022-11-15T01:21:22.661Z,101227.00
2022-11-15T01:24:14.022Z,101225.00
2022-11-15T01:27:02.984Z,101218.00
2022-11-15T01:29:50.088Z,101216.00
2022-11-15T01:32:37.254Z,101208.00
2022-11-15T01:35:24.838Z,101199.00
2022-11-15T01:38:12.044Z,101189.00
2022-11-15T01:40:59.028Z,101184.00
2022-11-15T01:43:50.984Z,101176.00
2022-11-15T01:46:40.076Z,101179.00
2022-11-15T01:49:31.132Z,101182.00
2022-11-15T01:52:22.828Z,101165.00
2022-11-15T01:55:16.573Z,101155.00
2022-11-15T01:58:06.790Z,101159.00
2022-11-15T02:00:55.788Z,101141.00
2022-11-15T02:03:50.883Z,101150.00
2022-11-15T02:06:39.573Z,101146.00
2022-11-15T02:09:26.528Z,101134.00
2022-11-15T02:12:17.176Z,101125.00
2022-11-15T02:15:06.424Z,101122.00
2022-11-15T02:18:13.698Z,101119.00
2022-11-15T02:21:29.690Z,101115.00
2022-11-15T02:25:05.312Z,101110.00
2022-11-15T02:28:22.817Z,101102.00
2022-11-15T02:31:19.894Z,101096.00
2022-11-15T02:34:18.808Z,101095.00
2022-11-15T02:37:18.034Z,101078.00
2022-11-15T02:40:16.828Z,101079.00
2022-11-15T02:43:30.121Z,101071.00
2022-11-15T02:46:47.276Z,101067.00
2022-11-15T02:49:36.846Z,101064.00
2022-11-15T02:52:27.215Z,101054.00
2022-11-15T02:55:31.100Z,101059.00
2022-11-15T02:58:59.871Z,101055.00
2022-11-15T03:02:08.324Z,101050.00
2022-11-15T03:04:59.756Z,101047.00
2022-11-15T03:08:02.060Z,101035.00
2022-11-15T03:11:03.478Z,101032.00
2022-11-15T03:14:00.914Z,101030.00
2022-11-15T03:17:01.848Z,101018.00
2022-11-15T03:19:52.673Z,101006.00
2022-11-15T03:22:46.395Z,101012.00
2022-11-15T03:25:37.084Z,101007.00
2022-11-15T03:28:33.737Z,100998.00
2022-11-15T03:31:44.448Z,100996.00
2022-11-15T03:34:42.518Z,100986.00
2022-11-15T03:37:39.323Z,100978.00
2022-11-15T03:40:35.578Z,100975.00
2022-11-15T03:43:33.301Z,100971.00
2022-11-15T03:46:28.338Z,100964.00
2022-11-15T03:49:24.386Z,100969.00
2022-11-15T03:52:15.448Z,100943.00
2022-11-15T03:55:06.763Z,100951.00
2022-11-15T03:57:59.600Z,100950.00
2022-11-15T04:00:46.801Z,100947.00
2022-11-15T04:03:34.598Z,100934.00
2022-11-15T04:06:22.129Z,100937.00
2022-11-15T04:09:10.738Z,100947.00
2022-11-15T04:11:57.957Z,100935.00
2022-11-15T04:15:05.501Z,100936.00
2022-11-15T04:17:55.087Z,100937.00
2022-11-15T04:21:07.947Z,100939.00
2022-11-15T04:24:12.934Z,100931.00
2022-11-15T04:27:02.080Z,100928.00
2022-11-15T04:29:52.140Z,100924.00
2022-11-15T04:32:40.635Z,100923.00
2022-11-15T04:35:27.955Z,100923.00
2022-11-15T04:38:15.002Z,100915.00
2022-11-15T04:41:05.902Z,100911.00
2022-11-15T04:43:54.760Z,100920.00
2022-11-15T04:46:45.083Z,100914.00
2022-11-15T04:49:35.477Z,100911.00
2022-11-15T04:52:22.910Z,100912.00
2022-11-15T04:55:10.578Z,100915.00
2022-11-15T04:58:02.069Z,100903.00
2022-11-15T05:00:51.036Z,100901.00
2022-11-15T05:03:55.667Z,100903.00
2022-11-15T05:06:43.150Z,100900.00
2022-11-15T05:09:30.838Z,100895.00
2022-11-15T05:12:17.821Z,100894.00
2022-11-15T05:15:05.670Z,100895.00
2022-11-15T05:17:59.377Z,100902.00
2022-11-15T05:20:46.677Z,100891.00
2022-11-15T05:23:33.880Z,100883.00
2022-11-15T05:26:21.548Z,100897.00
2022-11-15T05:29:08.805Z,100892.00
2022-11-15T05:31:55.682Z,100884.00
2022-11-15T05:34:44.258Z,100892.00
2022-11-15T05:37:32.890Z,100891.00
2022-11-15T05:40:20.148Z,100885.00
2022-11-15T05:43:08.216Z,100881.00
2022-11-15T05:45:55.751Z,100879.00
2022-11-15T05:48:49.300Z,100883.00
2022-11-15T05:51:38.580Z,100879.00
2022-11-15T05:54:28.626Z,100876.00
2022-11-15T05:57:20.637Z,100886.00
2022-11-15T06:00:10.448Z,100882.00
2022-11-15T06:02:57.258Z,100888.00
2022-11-15T06:05:44.651Z,100883.00
2022-11-15T06:08:33.262Z,100886.00
2022-11-15T06:11:20.668Z,100884.00
2022-11-15T06:14:07.940Z,100888.00
2022-11-15T06:16:55.363Z,100891.00
2022-11-15T06:19:42.707Z,100885.00
2022-11-15T06:22:30.614Z,100890.00
2022-11-15T06:25:19.696Z,100886.00
2022-11-15T06:28:06.920Z,100899.00
2022-11-15T06:30:54.582Z,100889.00
2022-11-15T06:33:42.309Z,100893.00
2022-11-15T06:36:32.463Z,100892.00
2022-11-15T06:39:20.093Z,100891.00
2022-11-15T06:42:10.733Z,100885.00
2022-11-15T06:44:57.778Z,100888.00
2022-11-15T06:47:47.889Z,100891.00
2022-11-15T06:50:35.176Z,100898.00
2022-11-15T06:53:22.583Z,100899.00
2022-11-15T06:56:10.256Z,100901.00
2022-11-15T06:58:59.451Z,100899.00
2022-11-15T07:01:46.625Z,100891.00
2022-11-15T07:04:33.869Z,100894.00
2022-11-15T07:07:21.603Z,100891.00
2022-11-15T07:10:10.415Z,100890.00
2022-11-15T07:12:58.389Z,100885.00
2022-11-15T07:15:46.635Z,100889.00
2022-11-15T07:18:36.668Z,100884.00
2022-11-15T07:21:27.564Z,100885.00
2022-11-15T07:24:15.419Z,100892.00
2022-11-15T07:27:02.799Z,100893.00
2022-11-15T07:29:53.147Z,100889.00
2022-11-15T07:32:41.609Z,100894.00
2022-11-15T07:35:31.470Z,100902.00
2022-11-15T07:38:20.582Z,100897.00
2022-11-15T07:41:08.730Z,100903.00
2022-11-15T07:43:55.845Z,100897.00
2022-11-15T07:46:43.030Z,100897.00
2022-11-15T07:49:31.647Z,100900.00
2022-11-15T07:52:18.806Z,100909.00
2022-11-15T07:55:06.680Z,100903.00
2022-11-15T07:57:53.682Z,100905.00
2022-11-15T08:00:42.072Z,100913.00
2022-11-15T08:03:29.655Z,100904.00
2022-11-15T08:06:18.886Z,100912.00
2022-11-15T08:09:06.181Z,100917.00
2022-11-15T08:11:53.997Z,100908.00
2022-11-15T08:14:41.030Z,100920.00
2022-11-15T08:17:28.720Z,100915.00
2022-11-15T08:20:16.876Z,100921.00
2022-11-15T08:23:07.040Z,100915.00
2022-11-15T08:25:54.325Z,100920.00
2022-11-15T08:28:41.440Z,100916.00
2022-11-15T08:31:28.369Z,100921.00
2022-11-15T08:34:15.577Z,100913.00
2022-11-15T08:37:03.767Z,100914.00
2022-11-15T08:39:52.424Z,100912.00
2022-11-15T08:42:42.910Z,100919.00
2022-11-15T08:45:31.164Z,100926.00
2022-11-15T08:48:18.300Z,100916.00
2022-11-15T08:51:07.155Z,100916.00
2022-11-15T08:53:54.388Z,100918.00
2022-11-15T08:56:44.274Z,100919.00
2022-11-15T08:59:31.587Z,100917.00
2022-11-15T09:02:18.971Z,100917.00
2022-11-15T09:05:07.685Z,100922.00
2022-11-15T09:07:56.100Z,100919.00
2022-11-15T09:10:43.164Z,100915.00
2022-11-15T09:13:31.668Z,100916.00
2022-11-15T09:16:19.381Z,100916.00
2022-11-15T09:19:11.713Z,100913.00
2022-11-15T09:21:59.509Z,100901.00
2022-11-15T09:24:47.757Z,100908.00
2022-11-15T09:27:35.002Z,100914.00
2022-11-15T09:30:23.571Z,100909.00
2022-11-15T09:33:12.367Z,100917.00
2022-11-15T09:36:03.658Z,100906.00
2022-11-15T09:38:52.830Z,100909.00
2022-11-15T09:42:12.323Z,100910.00
2022-11-15T09:45:15.502Z,100915.00
2022-11-15T09:48:29.900Z,100921.00
2022-11-15T09:51:32.789Z,100912.00
2022-11-15T09:57:16.443Z,100920.00
2022-11-15T10:03:15.368Z,100933.00
2022-11-15T10:05:46.967Z,100924.00
2022-11-15T10:08:54.892Z,100928.00
2022-11-15T10:11:37.368Z,100934.00
2022-11-15T10:14:16.128Z,100930.00
2022-11-15T10:17:32.782Z,100930.00
2022-11-15T10:20:14.927Z,100929.00
2022-11-15T10:22:49.589Z,100927.00
2022-11-15T10:25:23.299Z,100923.00
2022-11-15T10:28:04.043Z,100934.00
2022-11-15T10:30:36.446Z,100935.00
2022-11-15T10:33:32.176Z,100945.00
2022-11-15T10:36:27.794Z,100944.00
2022-11-15T10:38:59.722Z,100950.00
2022-11-15T10:41:45.084Z,100950.00
2022-11-15T10:44:29.535Z,100958.00
2022-11-15T10:47:43.392Z,100957.00
2022-11-15T10:50:43.384Z,100964.00
2022-11-15T10:53:26.932Z,100962.00
2022-11-15T10:56:07.980Z,100965.00
2022-11-15T10:58:43.613Z,100970.00
2022-11-15T11:01:20.230Z,100964.00
2022-11-15T11:04:02.754Z,100966.00
2022-11-15T11:06:50.239Z,100965.00
2022-11-15T11:09:35.359Z,100964.00
2022-11-15T11:12:07.171Z,100969.00
2022-11-15T11:14:39.363Z,100974.00
2022-11-15T11:17:26.832Z,100968.00
2022-11-15T11:20:07.262Z,100976.00
2022-11-15T11:22:52.933Z,100966.00
2022-11-15T11:25:54.084Z,100985.00
2022-11-15T11:28:41.729Z,100991.00
2022-11-15T11:31:33.675Z,100990.00
2022-11-15T11:34:18.193Z,100995.00
2022-11-15T11:37:06.646Z,100999.00
2022-11-15T11:39:58.700Z,100998.00
2022-11-15T11:42:54.576Z,100996.00
2022-11-15T11:45:56.239Z,100999.00
2022-11-15T11:48:43.501Z,101007.00
2022-11-15T11:51:23.031Z,101003.00
2022-11-15T11:54:01.415Z,101002.00
2022-11-15T11:56:34.954Z,100998.00
2022-11-15T11:59:15.000Z,101000.00
2022-11-15T12:04:43.026Z,101009.00
2022-11-15T12:07:35.504Z,101013.00
2022-11-15T12:10:19.435Z,101008.00
2022-11-15T12:13:03.159Z,101010.00
2022-11-15T12:15:44.325Z,101018.00
2022-11-15T12:18:18.634Z,101010.00
2022-11-15T12:21:04.689Z,101014.00
2022-11-15T12:23:47.679Z,101009.00
2022-11-15T12:26:25.436Z,101015.00
2022-11-15T12:29:08.814Z,101004.00
2022-11-15T12:31:44.766Z,101008.00
2022-11-15T12:34:39.246Z,101008.00
2022-11-15T12:38:19.574Z,101011.00
2022-11-15T12:41:16.663Z,101022.00
2022-11-15T12:43:49.592Z,101023.00
2022-11-15T12:47:04.333Z,101018.00
2022-11-15T12:49:48.505Z,101021.00
2022-11-15T12:52:19.151Z,101018.00
2022-11-15T12:55:06.297Z,101014.00
2022-11-15T12:57:45.542Z,101023.00
2022-11-15T13:00:48.176Z,101030.00
2022-11-15T13:03:39.586Z,101032.00
2022-11-15T13:06:14.917Z,101031.00
2022-11-15T13:08:51.896Z,101028.00
2022-11-15T13:11:52.199Z,101035.00
2022-11-15T13:14:56.141Z,101037.00
2022-11-15T13:17:41.264Z,101044.00
2022-11-15T13:20:27.726Z,101037.00
2022-11-15T13:23:10.007Z,101044.00
2022-11-15T13:26:12.199Z,101041.00
2022-11-15T13:28:46.775Z,101050.00
2022-11-15T13:31:31.421Z,101057.00
2022-11-15T13:34:13.618Z,101064.00
2022-11-15T13:36:55.054Z,101058.00
2022-11-15T13:39:31.967Z,101066.00
2022-11-15T13:42:01.067Z,101066.00
2022-11-15T13:44:33.496Z,101076.00
2022-11-15T13:47:09.326Z,101077.00
2022-11-15T13:49:38.864Z,101080.00
2022-11-15T13:52:12.640Z,101075.00
2022-11-15T13:54:47.561Z,101076.00
2022-11-15T13:57:23.634Z,101075.00
2022-11-15T13:59:56.079Z,101081.00
2022-11-15T14:02:33.028Z,101088.00
2022-11-15T14:05:17.847Z,101086.00
2022-11-15T14:07:59.290Z,101085.00
2022-11-15T14:10:32.734Z,101093.00
2022-11-15T14:13:03.615Z,101099.00
2022-11-15T14:15:36.573Z,101094.00
2022-11-15T14:18:06.742Z,101107.00
2022-11-15T14:20:40.418Z,101106.00
2022-11-15T14:23:27.655Z,101106.00
2022-11-15T14:25:59.294Z,101101.00
2022-11-15T14:28:39.122Z,101106.00
2022-11-15T14:31:15.398Z,101111.00
2022-11-15T14:33:47.514Z,101110.00
2022-11-15T14:36:19.703Z,101115.00
2022-11-15T14:38:50.447Z,101116.00
2022-11-15T14:41:27.451Z,101126.00
2022-11-15T14:43:56.328Z,101135.00
2022-11-15T14:46:25.437Z,101134.00
2022-11-15T14:48:55.973Z,101148.00
2022-11-15T14:51:24.923Z,101149.00
2022-11-15T14:53:56.453Z,101147.00
2022-11-15T14:56:30.368Z,101152.00
2022-11-15T14:58:59.568Z,101167.00
2022-11-15T15:01:29.093Z,101161.00
2022-11-15T15:03:59.295Z,101161.00
2022-11-15T15:06:30.110Z,101162.00
2022-11-15T15:09:00.323Z,101172.00
2022-11-15T15:11:32.619Z,101170.00
2022-11-15T15:14:02.355Z,101180.00
2022-11-15T15:16:33.974Z,101186.00
2022-11-15T15:19:02.819Z,101194.00
2022-11-15T15:21:36.777Z,101198.00
2022-11-15T15:24:15.907Z,101190.00
2022-11-15T15:26:45.085Z,101200.00
2022-11-15T15:29:17.051Z,101197.00
2022-11-15T15:31:45.738Z,101202.00
2022-11-15T15:34:16.943Z,101198.00
2022-11-15T15:37:09.763Z,101200.00
2022-11-15T15:39:40.303Z,101208.00
2022-11-15T15:42:09.218Z,101208.00
2022-11-15T15:44:37.990Z,101220.00
2022-11-15T15:47:14.265Z,101220.00
2022-11-15T15:49:43.284Z,101225.00
2022-11-15T15:52:12.693Z,101230.00
2022-11-15T15:54:43.632Z,101221.00
2022-11-15T15:57:15.851Z,101231.00
2022-11-15T15:59:44.578Z,101238.00
2022-11-15T16:02:14.974Z,101231.00
2022-11-15T16:04:46.078Z,101229.00
2022-11-15T16:07:23.148Z,101220.00
2022-11-15T16:10:02.615Z,101228.00
2022-11-15T16:12:38.958Z,101230.00
2022-11-15T16:15:11.090Z,101225.00
2022-11-15T16:17:46.047Z,101228.00
2022-11-15T16:20:34.414Z,101223.00
2022-11-15T16:23:09.120Z,101224.00
2022-11-15T16:25:44.621Z,101230.00
2022-11-15T16:28:22.160Z,101227.00
2022-11-15T16:31:00.754Z,101226.00
2022-11-15T16:33:29.574Z,101227.00
2022-11-15T16:35:58.549Z,101235.00
2022-11-15T16:38:27.672Z,101222.00
2022-11-15T16:40:57.758Z,101227.00
2022-11-15T16:43:27.301Z,101225.00
2022-11-15T16:45:59.953Z,101230.00
2022-11-15T16:48:31.216Z,101240.00
2022-11-15T16:51:01.361Z,101245.00
2022-11-15T16:53:30.014Z,101244.00
2022-11-15T16:56:00.221Z,101253.00
2022-11-15T16:58:29.005Z,101261.00
2022-11-15T17:01:01.456Z,101255.00
2022-11-15T17:03:32.069Z,101266.00
2022-11-15T17:06:00.913Z,101271.00
2022-11-15T17:08:29.705Z,101271.00
2022-11-15T17:10:59.858Z,101264.00
2022-11-15T17:13:29.041Z,101266.00
2022-11-15T17:16:07.236Z,101276.00
2022-11-15T17:18:36.530Z,101276.00
2022-11-15T17:21:10.045Z,101271.00
2022-11-15T17:23:41.501Z,101272.00
2022-11-15T17:26:33.018Z,101282.00
2022-11-15T17:29:04.542Z,101281.00
2022-11-15T17:31:34.158Z,101282.00
2022-11-15T17:34:04.533Z,101281.00
2022-11-15T17:36:33.629Z,101286.00
2022-11-15T17:39:02.298Z,101294.00
2022-11-15T17:41:33.115Z,101287.00
2022-11-15T17:44:03.725Z,101290.00
2022-11-15T17:46:34.120Z,101280.00
2022-11-15T17:49:03.342Z,101291.00
2022-11-15T17:51:31.920Z,101286.00
2022-11-15T17:54:00.572Z,101285.00
2022-11-15T17:56:32.148Z,101297.00
2022-11-15T17:59:02.118Z,101292.00
2022-11-15T18:01:33.523Z,101282.00
2022-11-15T18:04:05.179Z,101288.00
2022-11-15T18:06:36.350Z,101289.00
2022-11-15T18:09:07.317Z,101302.00
2022-11-15T18:11:46.737Z,101304.00
2022-11-15T18:14:20.869Z,101298.00
2022-11-15T18:16:49.921Z,101305.00
2022-11-15T18:19:20.379Z,101302.00
2022-11-15T18:21:59.284Z,101301.00
2022-11-15T18:24:32.274Z,101308.00
2022-11-15T18:27:06.549Z,101303.00
2022-11-15T18:29:39.996Z,101306.00
2022-11-15T18:32:15.175Z,101303.00
2022-11-15T18:34:44.042Z,101310.00
2022-11-15T18:37:14.651Z,101310.00
2022-11-15T18:39:51.123Z,101308.00
2022-11-15T18:42:23.863Z,101306.00
2022-11-15T18:44:52.475Z,101317.00
2022-11-15T18:47:21.122Z,101303.00
2022-11-15T18:49:50.810Z,101307.00
2022-11-15T18:52:19.957Z,101303.00
2022-11-15T18:54:48.985Z,101307.00
2022-11-15T18:57:18.182Z,101317.00
2022-11-15T18:59:48.375Z,101314.00
2022-11-15T19:02:17.270Z,101321.00
2022-11-15T19:04:45.957Z,101306.00
2022-11-15T19:07:19.438Z,101307.00
2022-11-15T19:09:48.336Z,101304.00
2022-11-15T19:12:17.052Z,101311.00
2022-11-15T19:14:47.259Z,101312.00
2022-11-15T19:17:16.098Z,101314.00
2022-11-15T19:19:44.701Z,101318.00
2022-11-15T19:22:13.488Z,101314.00
2022-11-15T19:24:42.199Z,101323.00
2022-11-15T19:27:11.171Z,101329.00
2022-11-15T19:29:40.648Z,101332.00
2022-11-15T19:32:10.847Z,101326.00
2022-11-15T19:34:51.959Z,101330.00
2022-11-15T19:37:20.976Z,101333.00
2022-11-15T19:39:49.860Z,101322.00
2022-11-15T19:42:25.295Z,101327.00
2022-11-15T19:44:54.727Z,101330.00
2022-11-15T19:47:30.464Z,101336.00
2022-11-15T19:50:00.399Z,101339.00
2022-11-15T19:52:29.829Z,101336.00
2022-11-15T19:54:59.033Z,101350.00
2022-11-15T19:57:27.990Z,101351.00
2022-11-15T19:59:56.892Z,101339.00
2022-11-15T20:02:27.183Z,101342.00
2022-11-15T20:04:55.809Z,101357.00
2022-11-15T20:07:24.609Z,101361.00
2022-11-15T20:09:53.928Z,101355.00
2022-11-15T20:12:22.559Z,101363.00
2022-11-15T20:14:51.246Z,101352.00
2022-11-15T20:17:21.127Z,101344.00
2022-11-15T20:19:51.167Z,101357.00
2022-11-15T20:22:19.726Z,101349.00
2022-11-15T20:24:48.350Z,101346.00
2022-11-15T20:27:17.460Z,101347.00
2022-11-15T20:29:46.121Z,101349.00
2022-11-15T20:32:14.798Z,101351.00
2022-11-15T20:34:43.443Z,101359.00
2022-11-15T20:37:13.568Z,101351.00
2022-11-15T20:39:42.265Z,101350.00
2022-11-15T20:42:10.874Z,101345.00
2022-11-15T20:44:39.533Z,101360.00
2022-11-15T20:47:08.441Z,101362.00
2022-11-15T20:49:37.108Z,101364.00
2022-11-15T20:52:06.152Z,101359.00
2022-11-15T20:54:37.012Z,101359.00
2022-11-15T20:57:05.676Z,101368.00
2022-11-15T20:59:34.964Z,101363.00
2022-11-15T21:02:03.879Z,101369.00
2022-11-15T21:04:32.725Z,101377.00
2022-11-15T21:07:01.672Z,101365.00
2022-11-15T21:09:47.907Z,101371.00
2022-11-15T21:12:19.165Z,101368.00
2022-11-15T21:14:49.093Z,101373.00
2022-11-15T21:17:17.961Z,101361.00
2022-11-15T21:19:47.774Z,101373.00
2022-11-15T21:22:16.832Z,101371.00
2022-11-15T21:24:45.449Z,101362.00
2022-11-15T21:27:15.483Z,101367.00
2022-11-15T21:29:59.129Z,101372.00
2022-11-15T21:32:29.375Z,101367.00
2022-11-15T21:35:16.851Z,101370.00
2022-11-15T21:37:50.584Z,101365.00
2022-11-15T21:40:22.234Z,101370.00
2022-11-15T21:42:52.861Z,101369.00
2022-11-15T21:45:24.170Z,101372.00
2022-11-15T21:47:52.907Z,101380.00
2022-11-15T21:50:21.774Z,101372.00
2022-11-15T21:52:50.329Z,101381.00
2022-11-15T21:55:18.982Z,101377.00
2022-11-15T21:58:01.862Z,101384.00
2022-11-15T22:00:49.984Z,101377.00
2022-11-15T22:03:20.340Z,101378.00
2022-11-15T22:05:50.275Z,101377.00
2022-11-15T22:08:18.895Z,101369.00
2022-11-15T22:10:48.199Z,101378.00
2022-11-15T22:13:17.041Z,101373.00
2022-11-15T22:15:48.480Z,101384.00
2022-11-15T22:18:21.081Z,101375.00
2022-11-15T22:20:59.014Z,101389.00
2022-11-15T22:23:30.289Z,101376.00
2022-11-15T22:25:59.667Z,101381.00
2022-11-15T22:28:29.208Z,101387.00
2022-11-15T22:31:05.155Z,101380.00
2022-11-15T22:33:41.567Z,101383.00
2022-11-15T22:36:17.131Z,101391.00
2022-11-15T22:38:50.504Z,101382.00
2022-11-15T22:41:21.141Z,101389.00
2022-11-15T22:43:49.887Z,101379.00
2022-11-15T22:46:20.038Z,101384.00
2022-11-15T22:48:49.010Z,101389.00
2022-11-15T22:51:17.722Z,101383.00
2022-11-15T22:53:46.425Z,101376.00
2022-11-15T22:56:20.121Z,101388.00
2022-11-15T22:58:51.822Z,101392.00
2022-11-15T23:01:25.132Z,101391.00
2022-11-15T23:04:02.814Z,101393.00
2022-11-15T23:06:35.598Z,101392.00
2022-11-15T23:09:06.436Z,101392.00
2022-11-15T23:11:52.319Z,101399.00
2022-11-15T23:14:21.116Z,101402.00
2022-11-15T23:16:51.359Z,101402.00
2022-11-15T23:19:20.103Z,101409.00
2022-11-15T23:22:05.985Z,101405.00
2022-11-15T23:24:35.229Z,101403.00
2022-11-15T23:27:07.534Z,101410.00
2022-11-15T23:29:58.514Z,101397.00
2022-11-15T23:32:45.931Z,101400.00
2022-11-15T23:35:14.690Z,101413.00
2022-11-15T23:37:43.518Z,101404.00
2022-11-15T23:40:14.011Z,101397.00
2022-11-15T23:42:42.786Z,101408.00
2022-11-15T23:45:13.111Z,101400.00
2022-11-15T23:47:43.315Z,101403.00
2022-11-15T23:50:12.785Z,101406.00
2022-11-15T23:52:41.545Z,101408.00
2022-11-15T23:55:11.223Z,101408.00
2022-11-15T23:57:41.730Z,101404.00
